createdAt,value
2022-12-18T00:01:18.616Z,-3.08
2022-12-18T00:03:47.036Z,-3.10
2022-12-18T00:06:15.498Z,-3.23
2022-12-18T00:08:43.201Z,-3.23
2022-12-18T00:11:13.811Z,-3.36
2022-12-18T00:13:42.021Z,-2.88
2022-12-18T00:16:12.360Z,-3.09
2022-12-18T00:18:42.126Z,-2.72
2022-12-18T00:21:12.827Z,-2.54
2022-12-18T00:23:41.882Z,-2.21
2022-12-18T00:26:13.072Z,-2.43
2022-12-18T00:28:40.744Z,-2.22
2022-12-18T00:31:12.238Z,-2.60
2022-12-18T00:33:41.559Z,-2.41
2022-12-18T00:36:12.460Z,-2.58
2022-12-18T00:38:40.619Z,-2.24
2022-12-18T00:41:09.525Z,-3.15
2022-12-18T00:43:37.037Z,-3.18
2022-12-18T00:46:08.194Z,-3.40
2022-12-18T00:48:36.018Z,-3.17
2022-12-18T00:51:04.871Z,-3.17
2022-12-18T00:53:32.407Z,-2.80
2022-12-18T00:55:59.963Z,-2.61
2022-12-18T00:58:27.476Z,-2.48
2022-12-18T01:00:56.506Z,-2.50
2022-12-18T01:03:24.233Z,-2.38
2022-12-18T01:05:51.791Z,-2.21
2022-12-18T01:08:20.648Z,-2.28
2022-12-18T01:10:48.234Z,-2.12
2022-12-18T01:13:15.799Z,-2.57
2022-12-18T01:15:50.189Z,-2.95
2022-12-18T01:18:17.708Z,-3.32
2022-12-18T01:20:45.275Z,-3.39
2022-12-18T01:23:12.768Z,-3.26
2022-12-18T01:25:41.614Z,-3.37
2022-12-18T01:28:09.136Z,-3.16
2022-12-18T01:30:36.675Z,-3.46
2022-12-18T01:33:06.056Z,-2.69
2022-12-18T01:35:33.594Z,-2.15
2022-12-18T01:38:01.082Z,-2.05
2022-12-18T01:40:28.575Z,-1.83
2022-12-18T01:42:57.750Z,-2.21
2022-12-18T01:45:30.110Z,-2.34
2022-12-18T01:48:00.252Z,-2.18
2022-12-18T01:50:32.389Z,-3.04
2022-12-18T01:53:04.042Z,-2.34
2022-12-18T01:55:37.092Z,-2.46
2022-12-18T01:58:06.806Z,-2.30
2022-12-18T02:00:34.374Z,-2.47
2022-12-18T02:03:02.050Z,-2.30
2022-12-18T02:05:42.088Z,-2.68
2022-12-18T02:08:19.026Z,-2.52
2022-12-18T02:10:53.747Z,-2.35
2022-12-18T02:13:31.955Z,-2.29
2022-12-18T02:16:08.888Z,-2.68
2022-12-18T02:18:40.336Z,-2.65
2022-12-18T02:21:20.043Z,-2.43
2022-12-18T02:23:58.147Z,-2.61
2022-12-18T02:26:32.045Z,-2.49
2022-12-18T02:29:06.930Z,-2.27
2022-12-18T02:31:41.119Z,-1.92
2022-12-18T02:34:11.279Z,-2.34
2022-12-18T02:36:42.744Z,-2.53
2022-12-18T02:39:13.658Z,-2.55
2022-12-18T02:41:43.230Z,-2.66
2022-12-18T02:44:13.171Z,-2.56
2022-12-18T02:46:44.216Z,-2.33
2022-12-18T02:49:28.104Z,-1.91
2022-12-18T02:52:01.287Z,-1.62
2022-12-18T02:54:40.133Z,-1.35
2022-12-18T02:57:17.609Z,-1.63
2022-12-18T02:59:59.329Z,-2.01
2022-12-18T03:02:36.007Z,-2.16
2022-12-18T03:05:10.010Z,-2.32
2022-12-18T03:07:41.261Z,-2.03
2022-12-18T03:10:13.647Z,-1.91
2022-12-18T03:12:48.096Z,-2.14
2022-12-18T03:15:19.976Z,-2.13
2022-12-18T03:17:53.243Z,-1.80
2022-12-18T03:20:23.654Z,-2.03
2022-12-18T03:22:55.192Z,-1.74
2022-12-18T03:25:25.669Z,-1.54
2022-12-18T03:27:58.696Z,-1.96
2022-12-18T03:30:28.393Z,-1.64
2022-12-18T03:33:03.893Z,-1.99
2022-12-18T03:35:35.411Z,-2.45
2022-12-18T03:38:03.159Z,-2.56
2022-12-18T03:40:41.616Z,-2.34
2022-12-18T03:43:18.665Z,-2.28
2022-12-18T03:45:54.053Z,-2.45
2022-12-18T03:48:28.487Z,-2.85
2022-12-18T03:50:59.828Z,-3.27
2022-12-18T03:53:37.073Z,-3.10
2022-12-18T03:56:06.806Z,-2.78
2022-12-18T03:58:39.190Z,-2.57
2022-12-18T04:01:11.960Z,-2.59
2022-12-18T04:03:41.172Z,-2.50
2022-12-18T04:06:09.738Z,-2.67
2022-12-18T04:08:37.680Z,-2.90
2022-12-18T04:11:05.555Z,-2.98
2022-12-18T04:13:38.741Z,-2.99
2022-12-18T04:16:07.277Z,-2.92
2022-12-18T04:18:34.836Z,-2.72
2022-12-18T04:21:02.406Z,-2.91
2022-12-18T04:23:30.207Z,-2.69
2022-12-18T04:25:57.714Z,-3.04
2022-12-18T04:28:25.248Z,-3.09
2022-12-18T04:30:54.196Z,-2.59
2022-12-18T04:33:21.768Z,-3.07
2022-12-18T04:35:49.330Z,-3.05
2022-12-18T04:38:16.870Z,-2.82
2022-12-18T04:40:45.160Z,-2.73
2022-12-18T04:43:12.766Z,-2.73
2022-12-18T04:45:41.010Z,-3.07
2022-12-18T04:48:09.894Z,-3.10
2022-12-18T04:50:38.130Z,-2.58
2022-12-18T04:53:05.690Z,-2.07
2022-12-18T04:55:33.216Z,-2.48
2022-12-18T04:58:00.740Z,-3.07
2022-12-18T05:00:28.712Z,-3.26
2022-12-18T05:02:56.456Z,-3.08
2022-12-18T05:05:25.446Z,-3.00
2022-12-18T05:07:52.983Z,-2.73
2022-12-18T05:10:20.539Z,-2.78
2022-12-18T05:13:04.766Z,-2.21
2022-12-18T05:15:33.037Z,-1.98
2022-12-18T05:18:01.910Z,-2.09
2022-12-18T05:20:31.294Z,-1.77
2022-12-18T05:22:58.844Z,-2.05
2022-12-18T05:25:26.719Z,-1.72
2022-12-18T05:27:54.247Z,-2.03
2022-12-18T05:30:21.815Z,-2.32
2022-12-18T05:32:49.348Z,-2.27
2022-12-18T05:35:16.943Z,-2.41
2022-12-18T05:37:45.794Z,-2.22
2022-12-18T05:40:14.008Z,-2.76
2022-12-18T05:42:41.522Z,-2.62
2022-12-18T05:45:09.734Z,-2.61
2022-12-18T05:47:37.284Z,-2.98
2022-12-18T05:50:07.847Z,-3.03
2022-12-18T05:52:35.403Z,-3.50
2022-12-18T05:55:05.316Z,-3.57
2022-12-18T05:57:32.823Z,-3.36
2022-12-18T06:00:00.370Z,-3.32
2022-12-18T06:02:28.015Z,-3.13
2022-12-18T06:04:55.641Z,-2.96
2022-12-18T06:07:23.163Z,-3.17
2022-12-18T06:09:50.729Z,-3.11
2022-12-18T06:12:19.584Z,-3.04
2022-12-18T06:14:47.114Z,-2.78
2022-12-18T06:17:14.676Z,-2.87
2022-12-18T06:19:42.488Z,-2.73
2022-12-18T06:22:09.998Z,-2.81
2022-12-18T06:24:37.494Z,-2.50
2022-12-18T06:27:05.209Z,-2.97
2022-12-18T06:29:34.084Z,-2.92
2022-12-18T06:32:01.608Z,-3.20
2022-12-18T06:34:29.196Z,-3.54
2022-12-18T06:36:56.724Z,-3.13
2022-12-18T06:39:24.296Z,-3.05
2022-12-18T06:41:51.902Z,-2.91
2022-12-18T06:44:19.550Z,-2.89
2022-12-18T06:46:48.382Z,-2.70
2022-12-18T06:49:16.886Z,-2.89
2022-12-18T06:51:44.647Z,-2.83
2022-12-18T06:54:13.030Z,-2.67
2022-12-18T06:56:40.683Z,-2.51
2022-12-18T06:59:08.252Z,-2.73
2022-12-18T07:01:35.877Z,-2.49
2022-12-18T07:04:04.900Z,-3.05
2022-12-18T07:06:32.443Z,-2.93
2022-12-18T07:08:59.964Z,-3.27
2022-12-18T07:11:27.478Z,-3.07
2022-12-18T07:13:55.307Z,-2.99
2022-12-18T07:16:25.682Z,-2.93
2022-12-18T07:18:53.715Z,-3.33
2022-12-18T07:21:23.670Z,-3.17
2022-12-18T07:23:51.448Z,-3.37
2022-12-18T07:26:21.512Z,-3.17
2022-12-18T07:28:49.580Z,-3.39
2022-12-18T07:31:19.237Z,-3.86
2022-12-18T07:33:47.717Z,-3.73
2022-12-18T07:36:15.596Z,-3.15
2022-12-18T07:38:44.873Z,-3.03
2022-12-18T07:41:14.463Z,-2.90
2022-12-18T07:43:43.666Z,-2.24
2022-12-18T07:46:13.371Z,-1.84
2022-12-18T07:48:41.116Z,-1.61
2022-12-18T07:51:09.311Z,-1.69
2022-12-18T07:53:38.317Z,-1.75
2022-12-18T07:56:28.260Z,-1.76
2022-12-18T07:58:56.963Z,-1.57
2022-12-18T08:01:24.582Z,-1.73
2022-12-18T08:03:52.665Z,-1.83
2022-12-18T08:06:22.517Z,-1.61
2022-12-18T08:08:53.144Z,-1.64
2022-12-18T08:11:22.343Z,-1.47
2022-12-18T08:13:49.879Z,-1.87
2022-12-18T08:16:18.038Z,-2.00
2022-12-18T08:18:45.613Z,-1.81
2022-12-18T08:21:15.955Z,-1.72
2022-12-18T08:23:44.236Z,-1.84
2022-12-18T08:26:12.525Z,-2.00
2022-12-18T08:28:42.209Z,-2.05
2022-12-18T08:31:10.236Z,-1.58
2022-12-18T08:33:40.232Z,-1.82
2022-12-18T08:36:10.970Z,-1.53
2022-12-18T08:38:39.051Z,-1.36
2022-12-18T08:41:08.658Z,-1.50
2022-12-18T08:43:53.744Z,-2.04
2022-12-18T08:46:24.388Z,-2.62
2022-12-18T08:48:53.406Z,-2.43
2022-12-18T08:51:21.486Z,-2.11
2022-12-18T08:53:49.525Z,-2.02
2022-12-18T08:56:17.140Z,-2.21
2022-12-18T08:58:44.751Z,-2.25
2022-12-18T09:01:14.672Z,-2.65
2022-12-18T09:03:44.219Z,-2.78
2022-12-18T09:06:15.539Z,-2.59
2022-12-18T09:08:43.466Z,-2.41
2022-12-18T09:11:15.166Z,-2.32
2022-12-18T09:13:43.007Z,-1.81
2022-12-18T09:16:10.737Z,-1.64
2022-12-18T09:18:38.867Z,-1.52
2022-12-18T09:21:13.162Z,-1.61
2022-12-18T09:23:41.120Z,-2.30
2022-12-18T09:26:09.025Z,-2.51
2022-12-18T09:28:36.621Z,-2.61
2022-12-18T09:31:08.589Z,-2.09
2022-12-18T09:33:36.639Z,-2.13
2022-12-18T09:36:05.755Z,-1.90
2022-12-18T09:38:35.672Z,-1.89
2022-12-18T09:41:08.570Z,-1.49
2022-12-18T09:43:43.136Z,-1.75
2022-12-18T09:46:16.569Z,-1.74
2022-12-18T09:48:49.583Z,-1.97
2022-12-18T09:51:21.916Z,-1.58
2022-12-18T09:53:57.513Z,-1.59
2022-12-18T09:56:36.902Z,-1.46
2022-12-18T09:59:06.136Z,-1.64
2022-12-18T10:01:41.719Z,-1.62
2022-12-18T10:04:11.625Z,-1.82
2022-12-18T10:06:46.366Z,-1.40
2022-12-18T10:09:26.103Z,-1.48
2022-12-18T10:12:01.169Z,-1.15
2022-12-18T10:14:36.214Z,-2.12
2022-12-18T10:17:15.649Z,-1.90
2022-12-18T10:19:51.200Z,-2.20
2022-12-18T10:22:29.206Z,-2.16
2022-12-18T10:25:04.972Z,-2.25
2022-12-18T10:27:32.824Z,-2.23
2022-12-18T10:30:03.355Z,-2.52
2022-12-18T10:32:32.433Z,-2.08
2022-12-18T10:35:01.236Z,-2.06
2022-12-18T10:37:31.481Z,-1.82
2022-12-18T10:40:19.923Z,-1.69
2022-12-18T10:43:05.861Z,-2.17
2022-12-18T10:45:33.418Z,-1.92
2022-12-18T10:48:01.156Z,-1.90
2022-12-18T10:51:01.834Z,-1.66
2022-12-18T10:53:23.430Z,-2.10
2022-12-18T10:55:55.551Z,-1.99
2022-12-18T10:58:26.936Z,-1.91
2022-12-18T11:01:10.676Z,-1.89
2022-12-18T11:03:39.880Z,-1.73
2022-12-18T11:06:10.354Z,-2.11
2022-12-18T11:08:39.420Z,-1.78
2022-12-18T11:11:22.218Z,-1.46
2022-12-18T11:14:02.604Z,-1.13
2022-12-18T11:16:32.596Z,-0.53
2022-12-18T11:19:17.066Z,-0.60
2022-12-18T11:21:44.851Z,-0.75
2022-12-18T11:24:23.192Z,-0.65
2022-12-18T11:26:57.827Z,-0.31
2022-12-18T11:29:33.463Z,-0.37
2022-12-18T11:32:36.822Z,-1.01
2022-12-18T11:35:13.969Z,-0.59
2022-12-18T11:37:44.538Z,-0.65
2022-12-18T11:40:18.238Z,-0.18
2022-12-18T11:42:54.000Z,-0.26
2022-12-18T11:45:32.643Z,-0.81
2022-12-18T11:48:06.619Z,-1.12
2022-12-18T11:50:45.991Z,-1.48
2022-12-18T11:53:14.268Z,-1.56
2022-12-18T11:55:48.455Z,-1.10
2022-12-18T11:58:31.517Z,-0.99
2022-12-18T12:01:09.847Z,-1.05
2022-12-18T12:04:10.660Z,-1.82
2022-12-18T12:06:48.468Z,-1.64
2022-12-18T12:09:24.833Z,-1.57
2022-12-18T12:12:04.943Z,-1.13
2022-12-18T12:14:55.647Z,-0.80
2022-12-18T12:17:32.857Z,-0.81
2022-12-18T12:20:09.441Z,-0.78
2022-12-18T12:22:44.056Z,-1.37
2022-12-18T12:25:29.002Z,-1.49
2022-12-18T12:28:13.010Z,-1.00
2022-12-18T12:30:52.886Z,-1.43
2022-12-18T12:33:36.158Z,-1.43
2022-12-18T12:36:12.315Z,-1.48
2022-12-18T12:38:51.550Z,-1.79
2022-12-18T12:41:40.528Z,-2.06
2022-12-18T12:44:14.831Z,-1.06
2022-12-18T12:46:45.364Z,-0.51
2022-12-18T12:49:19.315Z,-0.69
2022-12-18T12:51:52.020Z,-0.76
2022-12-18T12:54:23.266Z,-0.60
2022-12-18T12:56:59.211Z,-0.77
2022-12-18T12:59:33.464Z,-0.53
2022-12-18T13:02:15.260Z,-0.11
2022-12-18T13:04:50.073Z,-0.29
2022-12-18T13:07:23.704Z,0.06
2022-12-18T13:10:17.234Z,0.06
2022-12-18T13:12:56.556Z,-0.52
2022-12-18T13:15:26.511Z,-0.85
2022-12-18T13:18:16.158Z,-0.94
2022-12-18T13:20:52.245Z,-0.84
2022-12-18T13:23:29.478Z,-1.38
2022-12-18T13:25:58.111Z,-1.64
2022-12-18T13:28:53.711Z,-1.64
2022-12-18T13:32:11.316Z,-1.83
2022-12-18T13:34:42.580Z,-1.37
2022-12-18T13:37:41.949Z,-1.05
2022-12-18T13:40:56.958Z,-1.71
2022-12-18T13:43:28.608Z,-1.80
2022-12-18T13:46:19.887Z,-1.76
2022-12-18T13:48:54.030Z,-1.41
2022-12-18T13:51:24.056Z,-0.99
2022-12-18T13:53:53.947Z,-0.92
2022-12-18T13:56:26.404Z,-1.35
2022-12-18T13:59:18.812Z,-1.13
2022-12-18T14:01:53.528Z,-0.65
2022-12-18T14:04:25.099Z,-0.25
2022-12-18T14:06:57.345Z,-0.44
2022-12-18T14:09:28.581Z,-0.49
2022-12-18T14:12:19.244Z,-0.62
2022-12-18T14:14:49.066Z,-0.94
2022-12-18T14:17:19.684Z,-0.99
2022-12-18T14:19:49.585Z,-1.26
2022-12-18T14:22:20.558Z,-1.66
2022-12-18T14:24:49.384Z,-2.18
2022-12-18T14:27:25.735Z,-2.60
2022-12-18T14:29:53.830Z,-2.37
2022-12-18T14:32:23.168Z,-2.44
2022-12-18T14:34:52.384Z,-2.44
2022-12-18T14:37:24.804Z,-2.08
2022-12-18T14:39:58.874Z,-2.23
2022-12-18T14:42:28.971Z,-2.22
2022-12-18T14:45:41.092Z,-2.26
2022-12-18T14:48:14.567Z,-2.49
2022-12-18T14:50:44.230Z,-3.03
2022-12-18T14:53:25.121Z,-3.31
2022-12-18T14:55:52.748Z,-2.90
2022-12-18T14:58:20.655Z,-2.52
2022-12-18T15:00:48.463Z,-2.62
2022-12-18T15:03:20.784Z,-2.31
2022-12-18T15:05:48.813Z,-2.32
2022-12-18T15:08:32.131Z,-3.21
2022-12-18T15:11:00.500Z,-3.38
2022-12-18T15:13:28.965Z,-3.35
2022-12-18T15:15:58.013Z,-3.26
2022-12-18T15:18:33.954Z,-3.34
2022-12-18T15:21:09.898Z,-3.06
2022-12-18T15:23:48.107Z,-3.26
2022-12-18T15:26:17.886Z,-3.23
2022-12-18T15:28:48.017Z,-3.21
2022-12-18T15:31:30.495Z,-3.03
2022-12-18T15:34:14.376Z,-3.00
2022-12-18T15:36:42.243Z,-2.84
2022-12-18T15:39:14.157Z,-2.65
2022-12-18T15:42:01.738Z,-2.68
2022-12-18T15:44:28.469Z,-2.90
2022-12-18T15:46:55.975Z,-3.50
2022-12-18T15:49:23.735Z,-3.33
2022-12-18T15:51:54.715Z,-3.03
2022-12-18T15:54:44.425Z,-3.00
2022-12-18T15:57:23.803Z,-3.34
2022-12-18T15:59:51.580Z,-3.40
2022-12-18T16:02:20.689Z,-3.44
2022-12-18T16:04:48.369Z,-3.62
2022-12-18T16:07:19.322Z,-3.27
2022-12-18T16:09:55.196Z,-3.04
2022-12-18T16:12:26.197Z,-2.93
2022-12-18T16:14:53.722Z,-2.87
2022-12-18T16:17:21.253Z,-2.86
2022-12-18T16:19:48.926Z,-2.84
2022-12-18T16:22:22.867Z,-2.89
2022-12-18T16:24:51.370Z,-3.06
2022-12-18T16:27:20.891Z,-3.10
2022-12-18T16:29:48.572Z,-3.19
2022-12-18T16:32:18.105Z,-3.06
2022-12-18T16:34:46.857Z,-3.11
2022-12-18T16:37:15.978Z,-3.13
2022-12-18T16:39:43.940Z,-3.27
2022-12-18T16:42:15.494Z,-3.28
2022-12-18T16:44:45.454Z,-3.17
2022-12-18T16:47:14.943Z,-3.25
2022-12-18T16:49:43.062Z,-3.15
2022-12-18T16:52:10.601Z,-3.12
2022-12-18T16:54:38.114Z,-3.22
2022-12-18T16:57:06.078Z,-3.20
2022-12-18T16:59:33.853Z,-3.28
2022-12-18T17:02:14.294Z,-3.56
2022-12-18T17:04:41.990Z,-3.44
2022-12-18T17:07:09.877Z,-3.49
2022-12-18T17:09:41.789Z,-3.60
2022-12-18T17:12:09.568Z,-3.37
2022-12-18T17:14:38.049Z,-3.36
2022-12-18T17:17:20.999Z,-3.32
2022-12-18T17:19:49.693Z,-3.32
2022-12-18T17:22:17.241Z,-3.54
2022-12-18T17:24:44.759Z,-3.54
2022-12-18T17:27:12.297Z,-3.49
2022-12-18T17:29:45.375Z,-3.46
2022-12-18T17:32:16.046Z,-3.43
2022-12-18T17:34:43.660Z,-3.61
2022-12-18T17:37:11.195Z,-3.87
2022-12-18T17:39:39.102Z,-3.53
2022-12-18T17:42:06.775Z,-3.40
2022-12-18T17:44:35.494Z,-3.48
2022-12-18T17:47:03.123Z,-3.64
2022-12-18T17:49:32.190Z,-3.63
2022-12-18T17:51:59.691Z,-3.60
2022-12-18T17:54:27.245Z,-3.68
2022-12-18T17:56:54.777Z,-3.55
2022-12-18T17:59:22.581Z,-3.68
2022-12-18T18:01:50.322Z,-3.83
2022-12-18T18:04:18.035Z,-4.07
2022-12-18T18:06:46.955Z,-3.89
2022-12-18T18:09:16.484Z,-3.84
2022-12-18T18:12:02.368Z,-3.81
2022-12-18T18:14:30.099Z,-3.81
2022-12-18T18:17:04.027Z,-3.74
2022-12-18T18:19:34.061Z,-3.54
2022-12-18T18:22:03.244Z,-3.66
2022-12-18T18:24:31.771Z,-3.58
2022-12-18T18:27:00.413Z,-3.52
2022-12-18T18:29:30.213Z,-3.68
2022-12-18T18:31:58.083Z,-3.54
2022-12-18T18:34:27.986Z,-3.45
2022-12-18T18:36:55.858Z,-3.48
2022-12-18T18:39:24.807Z,-3.30
2022-12-18T18:41:52.633Z,-3.31
2022-12-18T18:44:24.880Z,-3.26
2022-12-18T18:46:55.008Z,-3.43
2022-12-18T18:49:24.079Z,-3.54
2022-12-18T18:51:51.919Z,-3.22
2022-12-18T18:54:19.594Z,-3.32
2022-12-18T18:57:19.511Z,-3.28
2022-12-18T18:59:36.961Z,-3.32
2022-12-18T19:02:05.185Z,-3.49
2022-12-18T19:04:33.335Z,-3.28
2022-12-18T19:07:00.923Z,-3.84
2022-12-18T19:09:30.325Z,-3.30
2022-12-18T19:12:22.723Z,-3.38
2022-12-18T19:14:50.336Z,-3.63
2022-12-18T19:17:17.908Z,-3.76
2022-12-18T19:19:45.852Z,-3.37
2022-12-18T19:22:14.045Z,-3.48
2022-12-18T19:24:41.668Z,-3.46
2022-12-18T19:27:10.935Z,-3.40
2022-12-18T19:29:38.454Z,-3.55
2022-12-18T19:32:06.371Z,-3.87
2022-12-18T19:34:34.396Z,-3.76
2022-12-18T19:37:02.024Z,-3.72
2022-12-18T19:39:29.767Z,-3.81
2022-12-18T19:41:57.678Z,-4.39
2022-12-18T19:44:26.769Z,-4.56
2022-12-18T19:46:54.303Z,-4.41
2022-12-18T19:49:21.853Z,-3.98
2022-12-18T19:51:50.268Z,-4.26
2022-12-18T19:54:18.361Z,-4.33
2022-12-18T19:56:46.273Z,-4.11
2022-12-18T19:59:14.380Z,-4.42
2022-12-18T20:01:43.417Z,-4.35
2022-12-18T20:04:11.143Z,-4.34
2022-12-18T20:06:47.870Z,-4.47
2022-12-18T20:09:15.898Z,-4.56
2022-12-18T20:11:44.180Z,-4.47
2022-12-18T20:14:12.641Z,-4.49
2022-12-18T20:16:40.650Z,-4.34
2022-12-18T20:19:11.666Z,-3.72
2022-12-18T20:21:40.239Z,-3.70
2022-12-18T20:24:09.216Z,-3.93
2022-12-18T20:26:36.864Z,-3.84
2022-12-18T20:29:04.561Z,-4.31
2022-12-18T20:31:32.359Z,-4.12
2022-12-18T20:34:01.587Z,-4.09
2022-12-18T20:36:33.075Z,-4.24
2022-12-18T20:39:05.223Z,-4.54
2022-12-18T20:41:38.549Z,-4.57
2022-12-18T20:44:10.295Z,-4.11
2022-12-18T20:46:50.119Z,-4.10
2022-12-18T20:49:17.635Z,-4.21
2022-12-18T20:51:46.510Z,-4.57
2022-12-18T20:54:14.049Z,-4.59
2022-12-18T20:56:41.579Z,-4.40
2022-12-18T20:59:11.283Z,-4.46
2022-12-18T21:01:39.742Z,-4.34
2022-12-18T21:04:11.523Z,-4.43
2022-12-18T21:06:39.237Z,-4.31
2022-12-18T21:09:08.112Z,-4.39
2022-12-18T21:11:53.019Z,-3.97
2022-12-18T21:14:22.290Z,-3.85
2022-12-18T21:16:50.567Z,-4.10
2022-12-18T21:19:20.321Z,-3.99
2022-12-18T21:21:48.277Z,-4.28
2022-12-18T21:24:17.610Z,-4.02
2022-12-18T21:26:46.395Z,-4.14
2022-12-18T21:29:16.404Z,-4.27
2022-12-18T21:31:45.318Z,-4.05
2022-12-18T21:34:17.150Z,-3.85
2022-12-18T21:36:44.668Z,-3.80
2022-12-18T21:39:13.819Z,-4.06
2022-12-18T21:42:00.973Z,-4.18
2022-12-18T21:44:28.746Z,-4.07
2022-12-18T21:47:02.414Z,-4.04
2022-12-18T21:49:33.814Z,-4.05
2022-12-18T21:52:02.190Z,-3.71
2022-12-18T21:54:30.617Z,-4.08
2022-12-18T21:57:01.984Z,-3.86
2022-12-18T21:59:31.089Z,-4.13
2022-12-18T22:02:00.305Z,-4.00
2022-12-18T22:04:28.576Z,-4.07
2022-12-18T22:06:57.384Z,-4.06
2022-12-18T22:09:26.649Z,-4.04
2022-12-18T22:11:54.476Z,-3.89
2022-12-18T22:14:24.439Z,-4.21
2022-12-18T22:16:53.353Z,-3.95
2022-12-18T22:19:20.970Z,-4.23
2022-12-18T22:21:50.079Z,-4.00
2022-12-18T22:24:19.617Z,-3.45
2022-12-18T22:26:47.904Z,-3.49
2022-12-18T22:29:35.843Z,-4.16
2022-12-18T22:32:05.469Z,-3.70
2022-12-18T22:34:36.432Z,-3.52
2022-12-18T22:37:04.491Z,-3.67
2022-12-18T22:39:32.205Z,-3.36
2022-12-18T22:41:59.988Z,-3.58
2022-12-18T22:44:28.153Z,-3.91
2022-12-18T22:47:05.646Z,-3.78
2022-12-18T22:49:36.520Z,-3.34
2022-12-18T22:52:04.392Z,-3.44
2022-12-18T22:54:31.924Z,-3.80
2022-12-18T22:56:59.491Z,-3.70
2022-12-18T22:59:27.012Z,-3.31
2022-12-18T23:01:59.004Z,-3.35
2022-12-18T23:04:28.564Z,-2.91
2022-12-18T23:07:05.353Z,-3.01
2022-12-18T23:09:33.452Z,-2.86
2022-12-18T23:12:01.787Z,-2.77
2022-12-18T23:14:29.989Z,-2.88
2022-12-18T23:16:57.523Z,-3.30
2022-12-18T23:19:25.550Z,-2.93
2022-12-18T23:21:54.773Z,-3.28
2022-12-18T23:24:26.101Z,-3.10
2022-12-18T23:26:53.675Z,-3.14
2022-12-18T23:29:21.406Z,-2.61
2022-12-18T23:31:49.008Z,-2.98
2022-12-18T23:34:17.797Z,-2.97
2022-12-18T23:36:46.960Z,-3.04
2022-12-18T23:39:24.061Z,-2.90
2022-12-18T23:41:59.502Z,-3.35
2022-12-18T23:44:27.192Z,-3.34
2022-12-18T23:46:55.613Z,-3.24
2022-12-18T23:49:23.787Z,-3.00
2022-12-18T23:51:51.335Z,-2.87
2022-12-18T23:54:19.536Z,-3.42
2022-12-18T23:57:02.415Z,-3.42
2022-12-18T23:59:29.941Z,-3.64
